Time;durP1;ratioP1;P1;durP2;ratioP2;P2;SDS_P1;SDS_P2;PMS_P1;PMS_P2;Temp;Humidity;BMP_temperature;BMP_pressure;BME280_temperature;BME280_humidity;BME280_pressure;Samples;Min_cycle;Max_cycle;Signal;HPM_P1;HPM_P2
2021/04/26 00:01:09;;;;;;;9.20;3.43;;;;;;;4.03;63.11;96519.06;5076526;28;20063;-77
2021/04/26 00:03:34;;;;;;;6.33;3.20;;;;;;;3.91;63.52;96526.78;5053858;28;20037;-76
2021/04/26 00:06:00;;;;;;;7.23;3.27;;;;;;;3.87;63.60;96530.56;5076242;28;20033;-75
2021/04/26 00:08:26;;;;;;;9.33;3.83;;;;;;;3.92;63.19;96538.88;5050464;28;20024;-76
2021/04/26 00:10:52;;;;;;;11.53;3.57;;;;;;;3.85;63.60;96534.22;5056862;28;20513;-76
2021/04/26 00:13:18;;;;;;;6.27;3.33;;;;;;;3.86;64.23;96531.50;5061500;28;20024;-75
2021/04/26 00:15:44;;;;;;;7.53;3.40;;;;;;;3.79;64.27;96525.09;5066588;28;20119;-76
2021/04/26 00:18:11;;;;;;;8.37;3.67;;;;;;;3.77;64.25;96534.78;5073675;28;20592;-75
2021/04/26 00:20:37;;;;;;;9.33;3.57;;;;;;;3.78;64.51;96531.22;5075234;28;20028;-76
2021/04/26 00:23:03;;;;;;;12.77;4.27;;;;;;;3.70;64.83;96525.75;5068291;28;20450;-76
2021/04/26 00:25:29;;;;;;;11.90;4.23;;;;;;;3.67;65.66;96512.97;5072032;28;20063;-76
2021/04/26 00:27:57;;;;;;;8.50;3.77;;;;;;;3.65;65.15;96507.03;5050338;28;20030;-76
2021/04/26 00:30:24;;;;;;;9.53;4.90;;;;;;;3.51;65.29;96515.81;5074814;28;20894;-75
2021/04/26 00:32:51;;;;;;;9.47;4.00;;;;;;;3.40;66.42;96507.94;5059530;28;20493;-75
2021/04/26 00:35:17;;;;;;;7.03;3.77;;;;;;;3.38;66.23;96508.03;5072990;28;20716;-76
2021/04/26 00:37:45;;;;;;;8.53;4.00;;;;;;;3.36;66.77;96499.53;5071885;28;20895;-76
2021/04/26 00:40:13;;;;;;;8.07;3.50;;;;;;;3.40;65.92;96503.56;5073319;28;20462;-75
2021/04/26 00:42:40;;;;;;;8.57;3.83;;;;;;;3.42;65.96;96504.31;5064064;28;20461;-75
2021/04/26 00:45:14;;;;;;;10.47;4.23;;;;;;;3.33;66.16;96507.56;5050792;28;20462;-75
2021/04/26 00:47:41;;;;;;;11.20;4.10;;;;;;;3.47;65.04;96494.41;5072127;28;20528;-76
2021/04/26 00:50:10;;;;;;;7.90;4.10;;;;;;;3.41;64.37;96479.22;5061114;28;20549;-75
2021/04/26 00:52:36;;;;;;;11.73;4.60;;;;;;;3.40;65.17;96477.59;5080058;28;20446;-75
2021/04/26 00:55:04;;;;;;;8.90;4.63;;;;;;;3.39;64.09;96475.94;5077037;28;20962;-76
2021/04/26 00:57:30;;;;;;;10.20;4.63;;;;;;;3.37;64.03;96472.59;5067645;28;20462;-76
2021/04/26 00:59:57;;;;;;;8.90;4.20;;;;;;;3.35;64.20;96471.88;5046092;28;20496;-76
2021/04/26 01:02:26;;;;;;;10.53;4.27;;;;;;;3.27;64.00;96471.59;5047335;28;20490;-75
2021/04/26 01:04:55;;;;;;;7.83;4.20;;;;;;;3.24;64.36;96464.00;5050871;28;20458;-76
2021/04/26 01:07:20;;;;;;;9.27;4.53;;;;;;;3.16;64.31;96454.16;5076065;28;20527;-76
2021/04/26 01:09:46;;;;;;;8.20;4.40;;;;;;;3.03;64.24;96451.59;5065083;28;20826;-75
2021/04/26 01:12:50;;;;;;;8.10;4.10;;;;;;;3.04;64.35;96442.84;5070337;28;20033;-77
2021/04/26 01:15:15;;;;;;;8.97;4.00;;;;;;;3.10;64.26;96451.16;5071308;28;20032;-76
2021/04/26 01:17:48;;;;;;;9.03;4.10;;;;;;;2.98;63.88;96453.66;5078806;28;20982;-76
2021/04/26 01:20:15;;;;;;;9.70;4.47;;;;;;;2.94;63.69;96441.84;5051014;28;20025;-76
2021/04/26 01:23:26;;;;;;;8.53;3.90;;;;;;;2.97;64.37;96444.22;5078497;28;20544;-76
2021/04/26 01:25:52;;;;;;;7.63;4.73;;;;;;;2.83;64.44;96429.59;5035139;28;20044;-76
2021/04/26 01:28:31;;;;;;;8.03;3.93;;;;;;;2.82;64.41;96433.16;5047113;28;20590;-75
2021/04/26 01:31:20;;;;;;;8.93;4.47;;;;;;;2.79;64.58;96429.94;5066404;28;20458;-76
2021/04/26 01:33:51;;;;;;;7.97;4.40;;;;;;;2.87;64.53;96432.00;5059011;28;20467;-76
2021/04/26 01:36:22;;;;;;;11.20;4.90;;;;;;;2.80;64.06;96426.38;5050670;28;20446;-76
2021/04/26 01:38:55;;;;;;;11.03;5.20;;;;;;;2.79;63.81;96419.53;5071696;28;20497;-76
2021/04/26 01:41:23;;;;;;;8.60;4.70;;;;;;;2.80;63.89;96416.00;5081468;28;20471;-75
2021/04/26 01:43:51;;;;;;;10.90;4.37;;;;;;;2.70;64.36;96414.97;5070967;28;20539;-75
2021/04/26 01:46:17;;;;;;;11.77;4.10;;;;;;;2.68;63.96;96406.47;5081617;28;20458;-76
2021/04/26 01:48:48;;;;;;;8.60;4.00;;;;;;;2.63;64.04;96406.78;5075544;28;20461;-80
2021/04/26 01:51:16;;;;;;;11.17;4.67;;;;;;;2.63;63.79;96392.97;5059040;28;20463;-75
2021/04/26 01:53:44;;;;;;;11.17;4.33;;;;;;;2.61;63.98;96395.66;5078218;28;20928;-77
2021/04/26 01:56:12;;;;;;;9.67;4.60;;;;;;;2.54;64.43;96390.06;5063039;28;20492;-76
2021/04/26 01:58:47;;;;;;;8.00;4.20;;;;;;;2.47;63.57;96385.41;5084370;28;20429;-77
2021/04/26 02:01:16;;;;;;;9.70;4.20;;;;;;;2.44;64.54;96381.25;5063700;28;20479;-75
2021/04/26 02:03:48;;;;;;;8.40;3.87;;;;;;;2.40;64.26;96379.81;5059735;28;20479;-76
2021/04/26 02:06:34;;;;;;;8.67;4.20;;;;;;;2.38;64.18;96373.06;5079081;28;20470;-76
2021/04/26 02:09:17;;;;;;;9.50;4.80;;;;;;;2.32;63.77;96356.16;5055345;28;20512;-74
2021/04/26 02:11:45;;;;;;;10.83;5.53;;;;;;;2.36;63.71;96361.03;5071723;28;20058;-76
2021/04/26 02:14:14;;;;;;;8.53;4.43;;;;;;;2.21;64.31;96366.44;5073785;28;20640;-75
2021/04/26 02:16:40;;;;;;;11.30;4.10;;;;;;;2.18;64.69;96358.84;5060087;28;20459;-78
2021/04/26 02:19:06;;;;;;;8.33;4.47;;;;;;;2.10;64.99;96364.56;5081195;28;20557;-75
2021/04/26 02:21:33;;;;;;;8.27;3.87;;;;;;;2.14;64.76;96363.41;5057415;28;20552;-75
2021/04/26 02:23:59;;;;;;;8.03;4.13;;;;;;;2.07;64.24;96355.22;5065565;28;20452;-76
2021/04/26 02:26:25;;;;;;;8.80;4.60;;;;;;;2.12;64.22;96360.94;5033487;28;20546;-75
2021/04/26 02:28:51;;;;;;;8.20;3.67;;;;;;;2.01;63.93;96362.59;5050345;28;20450;-76
2021/04/26 02:31:23;;;;;;;6.63;3.73;;;;;;;2.03;63.88;96356.38;5077307;28;20063;-74
2021/04/26 02:34:03;;;;;;;8.53;3.97;;;;;;;2.00;64.26;96353.16;5077530;28;20558;-75
2021/04/26 02:36:44;;;;;;;8.50;3.80;;;;;;;2.03;63.76;96353.78;5073215;28;20535;-75
2021/04/26 02:39:13;;;;;;;10.73;4.87;;;;;;;1.99;64.12;96354.94;5088000;28;20426;-75
2021/04/26 02:41:42;;;;;;;11.40;4.40;;;;;;;2.00;64.14;96353.97;5076425;28;20497;-75
2021/04/26 02:44:32;;;;;;;;;;;;;;;1.97;63.94;96359.38;5068634;28;20427;-75
2021/04/26 02:47:09;;;;;;;7.57;3.63;;;;;;;1.79;64.61;96358.84;5074301;28;20044;-75
2021/04/26 02:49:43;;;;;;;9.87;3.90;;;;;;;1.83;64.29;96354.28;5071110;28;20455;-76
2021/04/26 02:52:13;;;;;;;10.27;4.10;;;;;;;1.77;64.89;96352.09;5061424;28;20443;-76
2021/04/26 02:54:43;;;;;;;9.63;4.00;;;;;;;1.80;64.55;96349.31;5069210;28;20475;-76
2021/04/26 02:57:09;;;;;;;11.63;3.83;;;;;;;1.70;64.67;96363.81;5073639;28;20476;-76
2021/04/26 02:59:37;;;;;;;8.73;4.13;;;;;;;1.81;64.03;96362.19;5068739;28;20450;-75
2021/04/26 03:02:05;;;;;;;7.37;3.57;;;;;;;1.75;64.11;96374.72;5069086;28;21049;-75
2021/04/26 03:04:42;;;;;;;8.70;4.00;;;;;;;1.55;65.29;96368.25;5072034;28;20477;-75
2021/04/26 03:07:09;;;;;;;9.87;4.03;;;;;;;1.64;64.63;96363.31;5084172;28;20546;-76
2021/04/26 03:09:57;;;;;;;13.33;4.97;;;;;;;1.55;65.19;96363.06;5074783;28;20962;-76
2021/04/26 03:12:26;;;;;;;9.17;3.80;;;;;;;1.60;64.69;96366.19;5078366;28;20436;-75
2021/04/26 03:14:52;;;;;;;7.70;3.47;;;;;;;1.61;64.41;96367.84;5071812;28;20541;-76
2021/04/26 03:17:19;;;;;;;8.47;4.17;;;;;;;1.51;65.18;96365.03;5086036;28;20491;-76
2021/04/26 03:19:58;;;;;;;10.97;4.10;;;;;;;1.51;64.49;96359.88;5053193;28;20426;-76
2021/04/26 03:22:27;;;;;;;5.77;3.30;;;;;;;1.63;64.37;96348.66;5064129;28;20565;-75
2021/04/26 03:24:52;;;;;;;7.63;3.70;;;;;;;1.48;64.38;96357.47;5050058;28;20455;-76
2021/04/26 03:27:21;;;;;;;9.27;4.07;;;;;;;1.48;64.95;96360.06;5043865;28;20549;-76
2021/04/26 03:29:50;;;;;;;8.90;3.77;;;;;;;1.53;64.45;96350.22;5070934;28;20475;-77
2021/04/26 03:32:18;;;;;;;10.47;4.30;;;;;;;1.47;64.71;96350.59;5062649;28;20546;-75
2021/04/26 03:34:55;;;;;;;6.70;3.67;;;;;;;1.47;64.55;96348.00;5058764;28;20467;-76
2021/04/26 03:37:23;;;;;;;8.87;4.20;;;;;;;1.39;65.07;96342.50;5064745;28;20470;-76
2021/04/26 03:39:51;;;;;;;6.97;3.93;;;;;;;1.39;65.13;96340.75;5049884;28;20484;-76
2021/04/26 03:42:18;;;;;;;9.57;4.00;;;;;;;1.23;65.48;96336.66;5042398;28;20561;-76
2021/04/26 03:44:49;;;;;;;8.30;4.07;;;;;;;1.24;65.75;96339.16;5077894;28;21256;-75
2021/04/26 03:47:21;;;;;;;10.83;4.77;;;;;;;1.14;65.70;96338.94;5052417;28;21265;-76
2021/04/26 03:50:26;;;;;;;11.57;3.30;;;;;;;1.21;65.45;96341.97;5024435;28;20507;-77
2021/04/26 03:53:11;;;;;;;7.77;3.70;;;;;;;1.18;65.01;96340.38;5010162;28;20639;-75
2021/04/26 03:55:55;;;;;;;10.23;3.57;;;;;;;1.29;65.18;96342.28;5049730;28;20461;-76
2021/04/26 03:58:21;;;;;;;8.27;4.17;;;;;;;1.29;64.89;96339.69;5065138;28;20462;-75
2021/04/26 04:00:47;;;;;;;10.93;4.23;;;;;;;1.29;64.67;96331.91;5073749;28;20051;-75
2021/04/26 04:03:13;;;;;;;7.80;3.90;;;;;;;1.41;64.68;96322.53;5062682;28;20495;-76
2021/04/26 04:05:43;;;;;;;10.80;4.07;;;;;;;1.46;64.84;96319.63;5048490;28;20032;-75
2021/04/26 04:08:27;;;;;;;8.87;4.10;;;;;;;1.43;64.69;96320.66;5061851;28;20498;-76
2021/04/26 04:11:11;;;;;;;9.30;4.47;;;;;;;1.54;64.28;96320.78;5048827;28;20480;-75
2021/04/26 04:14:13;;;;;;;9.23;3.70;;;;;;;1.45;64.79;96321.38;5024658;28;20480;-77
2021/04/26 04:16:44;;;;;;;9.80;4.53;;;;;;;1.42;64.96;96321.59;5039266;28;20485;-78
2021/04/26 04:19:09;;;;;;;7.03;3.73;;;;;;;1.33;65.70;96324.78;5086601;28;20497;-75
2021/04/26 04:21:37;;;;;;;7.80;3.80;;;;;;;1.27;65.56;96325.16;5085214;28;20450;-76
2021/04/26 04:24:06;;;;;;;9.70;4.30;;;;;;;1.23;66.32;96323.72;5079078;28;20561;-74
2021/04/26 04:26:32;;;;;;;8.30;4.20;;;;;;;1.29;65.59;96321.56;5069483;28;20498;-76
2021/04/26 04:29:07;;;;;;;10.23;4.80;;;;;;;1.34;65.91;96323.84;5065499;28;20458;-76
2021/04/26 04:31:47;;;;;;;9.83;4.60;;;;;;;1.35;65.60;96341.06;5065661;28;20442;-75
2021/04/26 04:34:33;;;;;;;9.37;4.30;;;;;;;1.26;65.59;96331.28;5043824;28;20458;-75
2021/04/26 04:37:18;;;;;;;7.73;4.03;;;;;;;1.40;65.69;96324.25;5047803;28;21058;-76
2021/04/26 04:40:05;;;;;;;11.37;4.23;;;;;;;1.42;65.72;96326.75;5055072;28;20441;-76
2021/04/26 04:42:53;;;;;;;7.73;3.93;;;;;;;1.49;64.89;96312.47;5062935;28;20569;-76
2021/04/26 04:45:21;;;;;;;9.90;4.20;;;;;;;1.44;65.43;96304.16;5071624;28;20454;-75
2021/04/26 04:48:19;;;;;;;11.80;4.07;;;;;;;1.57;64.83;96306.78;5030545;28;20491;-75
2021/04/26 04:50:49;;;;;;;9.47;4.70;;;;;;;1.59;64.86;96310.09;5031851;28;20471;-76
2021/04/26 04:53:16;;;;;;;10.27;5.40;;;;;;;1.54;65.32;96315.59;5046400;28;20455;-76
2021/04/26 04:55:43;;;;;;;10.53;6.00;;;;;;;1.61;65.16;96310.81;5048975;28;20130;-75
2021/04/26 04:58:09;;;;;;;8.83;4.53;;;;;;;1.47;65.34;96319.50;5032673;28;20588;-74
2021/04/26 05:00:35;;;;;;;14.40;4.80;;;;;;;1.58;65.02;96309.28;5067259;28;20470;-77
2021/04/26 05:03:24;;;;;;;7.43;4.20;;;;;;;1.52;65.64;96314.84;5036496;28;20463;-76
2021/04/26 05:06:08;;;;;;;9.30;4.23;;;;;;;1.63;65.62;96320.16;5070768;28;21233;-75
2021/04/26 05:08:53;;;;;;;9.47;4.40;;;;;;;1.63;65.62;96320.16;5068277;28;20495;-75
2021/04/26 05:11:37;;;;;;;9.17;4.47;;;;;;;1.81;64.99;96322.44;5068573;28;20462;-75
2021/04/26 05:14:25;;;;;;;11.87;4.90;;;;;;;2.08;63.70;96318.00;5057250;28;21094;-75
2021/04/26 05:16:51;;;;;;;9.73;4.63;;;;;;;2.22;63.04;96322.22;5073177;28;20561;-75
2021/04/26 05:19:17;;;;;;;11.07;4.67;;;;;;;2.27;63.24;96316.72;5048253;28;20435;-75
2021/04/26 05:21:42;;;;;;;8.17;4.57;;;;;;;2.51;62.56;96314.16;5070452;28;21089;-75
2021/04/26 05:24:10;;;;;;;11.07;5.00;;;;;;;2.48;62.32;96312.66;5072932;28;20448;-76
2021/04/26 05:26:37;;;;;;;8.30;4.47;;;;;;;2.73;61.20;96316.09;5059772;28;20506;-75
2021/04/26 05:29:03;;;;;;;8.63;4.43;;;;;;;2.91;61.36;96314.75;5075481;28;20438;-75
2021/04/26 05:31:30;;;;;;;10.73;5.03;;;;;;;2.99;61.46;96301.25;5056465;28;20553;-76
2021/04/26 05:33:56;;;;;;;9.87;5.33;;;;;;;2.92;61.73;96305.19;5068063;28;20537;-77
2021/04/26 05:36:30;;;;;;;7.70;3.90;;;;;;;3.17;59.63;96315.50;5063947;28;20546;-75
2021/04/26 05:39:04;;;;;;;10.93;5.13;;;;;;;3.42;60.28;96311.94;5069330;28;20527;-76
2021/04/26 05:41:31;;;;;;;8.80;5.03;;;;;;;3.48;59.76;96308.84;5053030;28;20476;-75
2021/04/26 05:43:57;;;;;;;11.77;5.43;;;;;;;3.97;58.61;96307.78;5068759;28;20474;-75
2021/04/26 05:46:27;;;;;;;9.47;5.47;;;;;;;3.47;59.99;96312.41;5080454;28;20994;-75
2021/04/26 05:48:53;;;;;;;8.73;5.23;;;;;;;4.07;58.08;96307.09;5063782;28;20478;-75
2021/04/26 05:51:19;;;;;;;10.10;5.23;;;;;;;4.19;57.73;96314.78;5072426;28;20021;-75
2021/04/26 05:53:45;;;;;;;10.13;4.80;;;;;;;4.16;57.82;96307.22;5078887;28;20035;-75
2021/04/26 05:56:10;;;;;;;10.20;4.77;;;;;;;4.82;57.09;96307.25;5071451;28;20024;-74
2021/04/26 05:58:36;;;;;;;11.10;4.77;;;;;;;4.92;55.70;96302.97;5066068;28;20043;-76
2021/04/26 06:01:03;;;;;;;11.27;4.40;;;;;;;4.96;54.96;96300.94;5070691;28;20485;-76
2021/04/26 06:03:30;;;;;;;11.77;5.30;;;;;;;5.20;54.90;96301.59;5049799;28;20040;-78
2021/04/26 06:05:57;;;;;;;8.10;4.30;;;;;;;5.42;54.33;96299.81;5051887;28;21148;-77
2021/04/26 06:08:24;;;;;;;10.97;5.80;;;;;;;5.37;54.21;96297.59;5051356;28;20474;-77
2021/04/26 06:10:50;;;;;;;9.10;4.57;;;;;;;5.76;53.25;96303.06;5059412;28;20447;-77
2021/04/26 06:13:15;;;;;;;11.23;4.47;;;;;;;5.78;53.26;96302.97;5061151;28;20470;-76
2021/04/26 06:15:41;;;;;;;11.27;4.83;;;;;;;6.14;53.01;96306.91;5047102;28;20060;-76
2021/04/26 06:18:07;;;;;;;11.00;5.03;;;;;;;5.84;53.46;96300.66;5055202;28;20051;-77
2021/04/26 06:20:32;;;;;;;8.77;4.10;;;;;;;6.28;52.16;96303.94;5055085;28;20119;-76
2021/04/26 06:22:58;;;;;;;9.97;4.63;;;;;;;6.65;50.97;96303.41;5051439;28;20039;-77
2021/04/26 06:25:24;;;;;;;9.23;4.50;;;;;;;6.03;52.71;96305.19;5060963;28;20685;-76
2021/04/26 06:27:51;;;;;;;11.77;4.37;;;;;;;5.99;53.09;96311.63;5047438;28;20048;-76
2021/04/26 06:30:17;;;;;;;10.87;4.43;;;;;;;6.52;51.53;96305.41;5050972;28;20120;-77
2021/04/26 06:32:43;;;;;;;8.40;4.77;;;;;;;7.06;51.25;96301.56;5076743;28;20470;-77
2021/04/26 06:35:09;;;;;;;9.77;5.00;;;;;;;6.87;50.38;96310.19;5078564;28;20461;-75
2021/04/26 06:37:34;;;;;;;8.63;4.50;;;;;;;6.95;51.21;96307.72;5049431;28;20044;-77
2021/04/26 06:40:00;;;;;;;11.50;5.70;;;;;;;7.33;49.25;96299.09;5041550;28;20546;-77
2021/04/26 06:42:26;;;;;;;11.33;4.90;;;;;;;7.31;50.06;96298.41;5058288;28;20032;-76
2021/04/26 06:44:52;;;;;;;11.50;4.97;;;;;;;7.76;48.72;96303.06;5075791;28;20032;-76
2021/04/26 06:47:18;;;;;;;9.27;4.40;;;;;;;7.84;48.32;96296.28;5063945;28;20037;-77
2021/04/26 06:49:44;;;;;;;12.03;4.93;;;;;;;8.05;47.32;96294.34;5059233;28;21170;-77
2021/04/26 06:52:10;;;;;;;10.67;4.80;;;;;;;7.96;47.59;96296.00;5052233;28;20075;-77
2021/04/26 06:54:35;;;;;;;12.33;5.63;;;;;;;8.07;47.46;96294.19;5048875;28;20034;-77
2021/04/26 06:57:01;;;;;;;11.30;6.00;;;;;;;8.17;47.40;96290.56;5070416;28;20036;-76
2021/04/26 06:59:27;;;;;;;9.93;4.57;;;;;;;8.63;46.22;96291.50;5065425;28;20067;-76
2021/04/26 07:01:52;;;;;;;9.83;5.00;;;;;;;8.34;46.66;96293.41;5044442;28;20031;-74
2021/04/26 07:04:18;;;;;;;8.93;4.60;;;;;;;8.55;45.53;96294.06;5057544;28;20025;-77
2021/04/26 07:06:44;;;;;;;10.27;4.27;;;;;;;9.08;45.18;96295.94;5059717;28;20493;-77
2021/04/26 07:09:10;;;;;;;8.23;4.20;;;;;;;8.52;46.62;96298.72;5053555;28;20035;-75
2021/04/26 07:11:36;;;;;;;9.60;4.77;;;;;;;8.60;45.28;96301.47;5047830;28;20036;-77
2021/04/26 07:14:02;;;;;;;8.77;4.47;;;;;;;9.95;43.97;96304.06;5066619;28;20338;-77
2021/04/26 07:16:28;;;;;;;10.53;4.67;;;;;;;9.73;42.51;96295.72;5045878;28;20029;-77
2021/04/26 07:18:54;;;;;;;7.83;4.43;;;;;;;9.94;42.13;96298.00;5045837;28;20493;-76
2021/04/26 07:21:19;;;;;;;12.67;5.00;;;;;;;9.89;42.11;96295.00;5068756;28;20470;-78
2021/04/26 07:23:45;;;;;;;10.33;4.47;;;;;;;9.11;43.51;96300.06;5060011;28;20033;-77
2021/04/26 07:26:12;;;;;;;7.47;4.13;;;;;;;10.18;42.07;96284.19;5053327;28;20071;-78
2021/04/26 07:28:37;;;;;;;9.03;5.03;;;;;;;10.77;40.74;96289.59;5045788;28;20553;-77
2021/04/26 07:31:03;;;;;;;10.00;4.43;;;;;;;10.43;41.23;96290.44;5074932;28;20112;-78
2021/04/26 07:33:29;;;;;;;11.63;5.30;;;;;;;9.72;41.44;96285.34;5071964;28;20111;-77
2021/04/26 07:35:54;;;;;;;14.70;5.00;;;;;;;9.79;42.42;96278.50;5059202;28;20751;-77
2021/04/26 07:38:20;;;;;;;8.03;4.87;;;;;;;10.19;41.58;96274.50;5072144;28;20024;-77
2021/04/26 07:40:46;;;;;;;10.43;5.40;;;;;;;10.12;41.13;96279.53;5074080;28;20100;-77
2021/04/26 07:43:12;;;;;;;10.80;5.80;;;;;;;10.71;40.99;96275.28;5055047;28;20123;-77
2021/04/26 07:45:38;;;;;;;8.37;4.60;;;;;;;10.70;39.70;96276.25;5064100;28;20098;-77
2021/04/26 07:48:04;;;;;;;9.40;4.80;;;;;;;10.30;41.11;96282.16;5045671;28;20060;-77
2021/04/26 07:50:29;;;;;;;10.50;5.20;;;;;;;9.82;41.63;96279.03;5071947;28;20044;-77
2021/04/26 07:52:55;;;;;;;14.87;4.90;;;;;;;10.55;40.21;96276.03;5060702;28;20081;-77
2021/04/26 07:55:21;;;;;;;7.67;4.70;;;;;;;11.03;39.77;96273.72;5062443;28;20469;-77
2021/04/26 07:57:47;;;;;;;8.57;4.33;;;;;;;10.83;39.68;96281.06;5054176;28;20659;-78
2021/04/26 08:00:13;;;;;;;16.47;6.90;;;;;;;10.94;41.19;96280.78;5067681;28;20037;-77
2021/04/26 08:02:39;;;;;;;9.20;4.77;;;;;;;11.98;38.85;96264.41;5073661;28;20500;-77
2021/04/26 08:05:05;;;;;;;10.43;4.93;;;;;;;12.70;37.46;96272.28;5052687;28;20032;-78
2021/04/26 08:07:31;;;;;;;8.77;5.00;;;;;;;12.80;37.15;96265.97;5050273;28;20017;-77
2021/04/26 08:09:57;;;;;;;9.53;4.70;;;;;;;12.89;36.65;96257.84;5053173;28;20032;-76
2021/04/26 08:12:23;;;;;;;7.90;4.27;;;;;;;12.67;36.81;96259.44;5067347;28;20021;-78
2021/04/26 08:14:49;;;;;;;9.10;4.73;;;;;;;13.17;36.65;96254.72;5073325;28;20062;-77
2021/04/26 08:17:15;;;;;;;9.53;4.60;;;;;;;12.86;36.93;96257.38;5058109;28;20141;-78
2021/04/26 08:19:41;;;;;;;9.97;4.40;;;;;;;13.31;35.60;96256.66;5069002;28;20046;-77
2021/04/26 08:22:08;;;;;;;11.40;4.80;;;;;;;12.75;37.08;96258.59;5040762;28;20053;-77
2021/04/26 08:24:34;;;;;;;10.60;5.37;;;;;;;13.31;35.85;96261.94;5065990;28;20032;-78
2021/04/26 08:26:59;;;;;;;7.83;4.53;;;;;;;13.14;35.98;96265.63;5063278;28;20151;-78
2021/04/26 08:29:25;;;;;;;11.30;4.80;;;;;;;13.33;35.89;96254.66;5047766;28;20025;-78
2021/04/26 08:31:51;;;;;;;8.33;4.70;;;;;;;14.00;34.90;96261.84;5050340;28;20103;-78
2021/04/26 08:34:16;;;;;;;9.20;4.80;;;;;;;13.84;35.61;96260.19;5066245;28;20036;-78
2021/04/26 08:36:43;;;;;;;11.03;5.17;;;;;;;13.97;35.04;96256.94;5054569;28;20136;-78
2021/04/26 08:39:09;;;;;;;9.90;5.17;;;;;;;13.39;36.25;96251.31;5070723;28;20028;-78
2021/04/26 08:41:35;;;;;;;8.13;4.87;;;;;;;13.85;36.00;96245.16;5072520;28;20056;-78
2021/04/26 08:44:00;;;;;;;11.40;4.47;;;;;;;14.87;33.50;96241.91;5072753;28;20508;-78
2021/04/26 08:46:26;;;;;;;8.43;5.03;;;;;;;14.09;35.18;96242.28;5054652;28;20029;-78
2021/04/26 08:48:52;;;;;;;8.53;4.67;;;;;;;15.06;32.91;96236.84;5063380;28;20032;-78
2021/04/26 08:51:18;;;;;;;9.50;5.00;;;;;;;14.05;34.70;96234.88;5047923;28;20039;-77
2021/04/26 08:53:44;;;;;;;9.10;4.60;;;;;;;14.64;33.75;96236.75;5052434;28;20728;-78
2021/04/26 08:56:10;;;;;;;7.17;4.40;;;;;;;14.87;33.29;96233.97;5072279;28;20162;-78
2021/04/26 08:58:36;;;;;;;13.10;5.80;;;;;;;15.06;33.85;96231.53;5075531;28;20460;-78
2021/04/26 09:01:04;;;;;;;7.20;4.30;;;;;;;15.57;32.73;96230.63;5064607;28;20028;-76
2021/04/26 09:03:31;;;;;;;10.87;5.23;;;;;;;14.16;34.35;96242.38;5070427;28;20416;-77
2021/04/26 09:05:57;;;;;;;7.53;4.77;;;;;;;14.76;33.58;96229.97;5063594;28;20025;-78
2021/04/26 09:08:23;;;;;;;8.03;4.73;;;;;;;16.00;32.08;96219.97;5049245;28;20063;-78
2021/04/26 09:10:51;;;;;;;7.63;4.80;;;;;;;14.71;33.64;96232.34;5067277;28;20036;-78
2021/04/26 09:13:30;;;;;;;10.20;5.60;;;;;;;14.81;33.64;96233.69;5075865;28;20033;-78
2021/04/26 09:16:21;;;;;;;10.70;5.10;;;;;;;15.52;32.94;96225.06;5068933;28;20032;-78
2021/04/26 09:18:57;;;;;;;7.87;4.47;;;;;;;15.79;31.41;96234.06;5065551;28;20048;-78
2021/04/26 09:21:29;;;;;;;12.60;5.67;;;;;;;15.86;32.42;96231.47;5060589;28;20025;-78
2021/04/26 09:24:34;;;;;;;8.53;5.03;;;;;;;16.15;32.36;96228.63;5061689;28;20142;-78
2021/04/26 09:27:09;;;;;;;8.97;5.40;;;;;;;15.33;33.59;96223.88;5049481;28;20131;-78
2021/04/26 09:29:35;;;;;;;8.77;5.33;;;;;;;16.00;32.26;96228.75;5067832;28;20020;-78
2021/04/26 09:32:11;;;;;;;9.47;5.03;;;;;;;15.71;32.34;96215.66;5064307;28;20554;-78
2021/04/26 09:34:47;;;;;;;8.37;4.80;;;;;;;15.72;31.82;96226.06;5060664;28;20036;-78
2021/04/26 09:37:17;;;;;;;9.07;5.00;;;;;;;16.03;31.49;96216.94;5074794;28;20033;-78
2021/04/26 09:40:11;;;;;;;9.00;5.10;;;;;;;16.36;31.95;96216.31;5077019;28;20032;-78
2021/04/26 09:42:43;;;;;;;8.65;5.00;;;;;;;16.06;32.27;96216.53;5052870;28;20115;-78
2021/04/26 09:45:37;;;;;;;11.17;5.27;;;;;;;16.62;31.39;96211.13;5082450;28;20037;-78
2021/04/26 09:48:19;;;;;;;8.37;5.57;;;;;;;16.91;30.59;96206.59;5056493;28;20051;-78
2021/04/26 09:50:57;;;;;;;9.83;4.90;;;;;;;16.60;30.73;96199.06;5063941;28;20033;-77
2021/04/26 09:53:26;;;;;;;9.13;4.63;;;;;;;15.81;31.42;96204.72;5064091;28;20548;-78
2021/04/26 09:55:56;;;;;;;7.93;4.93;;;;;;;16.00;32.55;96199.56;5058504;28;20077;-76
2021/04/26 09:58:23;;;;;;;10.40;5.13;;;;;;;15.81;31.96;96196.78;5067930;28;20040;-78
2021/04/26 10:00:49;;;;;;;11.03;5.93;;;;;;;16.84;30.30;96201.25;5076936;28;20411;-77
2021/04/26 10:03:17;;;;;;;11.27;6.03;;;;;;;16.89;29.63;96190.03;5060072;28;20556;-78
2021/04/26 10:05:45;;;;;;;7.03;4.60;;;;;;;17.31;29.66;96194.22;5062609;28;20031;-78
2021/04/26 10:08:12;;;;;;;9.80;5.63;;;;;;;17.31;28.88;96191.56;5058910;28;20041;-77
2021/04/26 10:10:42;;;;;;;12.03;5.37;;;;;;;17.72;28.96;96189.75;5070517;28;20025;-79
2021/04/26 10:13:08;;;;;;;8.97;4.17;;;;;;;17.17;28.71;96192.56;5062475;28;20033;-77
2021/04/26 10:15:34;;;;;;;12.73;4.63;;;;;;;14.95;31.52;96199.41;5068325;28;20147;-77
2021/04/26 10:18:03;;;;;;;46.90;27.87;;;;;;;17.02;27.65;96189.25;5067208;28;20036;-78
2021/04/26 10:20:55;;;;;;;10.37;4.93;;;;;;;16.00;29.98;96191.63;5057029;28;20004;-79
2021/04/26 10:23:33;;;;;;;9.03;4.00;;;;;;;16.81;27.92;96183.06;5037901;28;20525;-78
2021/04/26 10:25:59;;;;;;;9.87;4.87;;;;;;;17.86;27.02;96186.09;5061851;28;20481;-78
2021/04/26 10:28:30;;;;;;;9.93;4.20;;;;;;;18.44;26.34;96175.50;5061383;28;20037;-79
2021/04/26 10:31:15;;;;;;;7.70;4.07;;;;;;;18.27;25.86;96174.34;5068504;28;20065;-79
2021/04/26 10:33:56;;;;;;;6.83;3.80;;;;;;;16.87;26.45;96174.31;5082605;28;20042;-79
2021/04/26 10:36:46;;;;;;;8.17;4.30;;;;;;;17.50;26.80;96181.13;5067168;28;20035;-79
2021/04/26 10:39:17;;;;;;;7.43;4.73;;;;;;;17.49;27.24;96182.16;5052097;28;20044;-81
2021/04/26 10:41:47;;;;;;;8.57;4.37;;;;;;;17.01;27.45;96180.47;5055774;28;20039;-78
2021/04/26 10:44:14;;;;;;;8.60;4.90;;;;;;;16.47;28.67;96182.09;5064363;28;20085;-76
2021/04/26 10:46:40;;;;;;;6.07;3.70;;;;;;;19.19;25.14;96161.69;5090260;28;20023;-77
2021/04/26 10:49:08;;;;;;;8.98;4.53;;;;;;;18.69;24.93;96167.66;5077567;28;20029;-77
2021/04/26 10:51:37;;;;;;;6.30;3.72;;;;;;;16.99;27.38;96169.22;5067150;28;20089;-76
2021/04/26 10:54:04;;;;;;;10.53;4.37;;;;;;;16.58;29.04;96172.72;5061521;28;20032;-76
2021/04/26 10:56:32;;;;;;;7.47;4.27;;;;;;;17.41;27.29;96165.41;5052212;28;20090;-77
2021/04/26 10:59:16;;;;;;;9.07;4.67;;;;;;;15.69;28.74;96172.63;5044406;28;20054;-76
2021/04/26 11:01:48;;;;;;;7.27;4.00;;;;;;;15.40;29.33;96163.00;5062835;28;20036;-76
2021/04/26 11:04:14;;;;;;;8.48;4.43;;;;;;;17.97;27.34;96156.16;5059615;28;20043;-77
2021/04/26 11:06:58;;;;;;;9.17;4.83;;;;;;;16.98;27.27;96153.47;5068789;28;20024;-77
2021/04/26 11:09:34;;;;;;;7.22;4.35;;;;;;;15.70;29.88;96153.88;5050124;28;20039;-77
2021/04/26 11:12:03;;;;;;;12.80;4.80;;;;;;;16.16;29.72;96144.56;5058455;28;20401;-76
2021/04/26 11:14:29;;;;;;;9.40;5.13;;;;;;;17.25;29.33;96138.41;5052521;28;20028;-77
2021/04/26 11:17:05;;;;;;;7.33;4.30;;;;;;;19.02;26.24;96121.41;5056466;28;20036;-78
2021/04/26 11:19:33;;;;;;;7.97;4.63;;;;;;;18.18;27.05;96128.50;5070825;28;20044;-79
2021/04/26 11:22:01;;;;;;;9.23;5.43;;;;;;;17.98;27.36;96125.09;5047499;28;20517;-77
2021/04/26 11:24:26;;;;;;;11.20;5.17;;;;;;;17.70;29.05;96125.28;5064164;28;20033;-77
2021/04/26 11:27:10;;;;;;;7.57;4.57;;;;;;;17.99;27.84;96119.53;5048198;28;20546;-77
2021/04/26 11:29:56;;;;;;;8.52;4.75;;;;;;;17.63;28.31;96131.44;5070855;28;20032;-78
2021/04/26 11:32:24;;;;;;;7.70;4.60;;;;;;;17.71;26.72;96121.63;5061598;28;20722;-78
2021/04/26 11:34:50;;;;;;;10.40;5.07;;;;;;;16.86;28.50;96119.53;5066184;28;20539;-77
2021/04/26 11:37:33;;;;;;;9.83;5.10;;;;;;;16.84;27.79;96121.56;5059529;28;20611;-77
2021/04/26 11:39:59;;;;;;;9.15;4.45;;;;;;;18.84;25.48;96096.25;5060793;28;20059;-77
2021/04/26 11:42:30;;;;;;;9.10;4.53;;;;;;;17.65;27.12;96102.78;5068732;28;20557;-78
2021/04/26 11:44:57;;;;;;;8.27;4.17;;;;;;;17.30;27.80;96096.88;5066418;28;20032;-77
2021/04/26 11:47:25;;;;;;;8.23;4.28;;;;;;;18.12;26.94;96084.91;5063822;28;20037;-77
2021/04/26 11:49:58;;;;;;;7.75;4.65;;;;;;;17.76;26.80;96079.25;5072175;28;20036;-77
2021/04/26 11:52:27;;;;;;;8.68;4.75;;;;;;;18.80;26.34;96062.28;5077380;28;20024;-77